PAGY

Details ICAO PAGY (SGY)
Name SKAGWAY
Region USA (Alaska)
Timezone America/Juneau (UTC-9.0)
Plans Departing 27
Arriving 29
Stats Elevation 44 ft / 13 m (AMSL)
Location 59.460062° -135.315661°
Runways 1
Magnetic Variation 19.351° E
Sunrise 2017-12-12 17:51:53 UTC / 2017-12-12 08:51:53 Local
Sunset 2017-12-13 00:01:19 UTC / 2017-12-12 15:01:19 Local
Advertisement - Login to hide

Runways

ID Width Length Bearing (true) Bearing (mag) Surface Threshold Offset Overrun Length
02 75 ft / 23 m 3,542 ft / 1,080 m 43.94° 24.59° Asphalt 0 ft / 0 m 299 ft / 91 m
20 75 ft / 23 m 3,542 ft / 1,080 m 223.95° 204.60° Asphalt 0 ft / 0 m 299 ft / 91 m

Map

Weather


0- 5 10 15 20 25 30 35+ Temperature / ° C

Clouds and Precipitation
Forecast for 2017-12-12 12:00 UTC. Updated an hour ago

Ground ~20,000 ft ~40,000 ft Winds

METAR

PAGY 120953Z AUTO 00000KT 8SM -RA FEW007 BKN027 OVC055 03/02 A3002 RMK SLP164 P0002 T00330022 TSNO $ VIA AUTODIAL

TAF

PAGY 120933Z 1210/1306 04003KT 6SM -RA BR BKN003 BKN029 OVC035 FM121500 21005KT 6SM -RA BR SCT010 OVC025 FM121800 21010G20KT P6SM -RA SCT015 BKN025 OVC050 FM122100 21010G20KT P6SM VCSH SCT025 OVC050 AMD LTD TO CLD VIS AND WIND

Frequencies

Recorded 135.80 MHz ASOS
Unicom 122.90 MHz CTAF
Warning: Do not use this data for real-world aviation or navigation. No guarantee of current accuracy is given.